Terminal Aerodrome Forecast
Issued by NWS

Home | Current Version | Previous Version | Text Only | Print | Product List | Glossary On
Versions: 1 2 3 4 5 6 7 8 9 10 11 12 13 14 15 16 17 18 19
000
FTUS44 KLIX 191100
TAFMCB
TAF
KMCB 191120Z 1912/2012 00000KT 3SM BR SCT008 SCT120
     FM191300 VRB03KT P6SM SCT120
     FM192000 13007KT P6SM SCT050
     FM200300 00000KT P6SM FEW250
      TEMPO 2009/2012 5SM BR=

USA.gov is the U.S. government's official web portal to all federal, state and local government web resources and services.